sensor_id;sensor_type;location;lat;lon;timestamp;P1;durP1;ratioP1;P2;durP2;ratioP2
57113;SDS011;42994;51.606;9.988;2024-03-25T00:00:27;9.88;;;3.00;;
57113;SDS011;42994;51.606;9.988;2024-03-25T00:02:54;4.93;;;2.45;;
57113;SDS011;42994;51.606;9.988;2024-03-25T00:05:21;9.32;;;2.97;;
57113;SDS011;42994;51.606;9.988;2024-03-25T00:07:47;7.47;;;3.15;;
57113;SDS011;42994;51.606;9.988;2024-03-25T00:10:15;7.38;;;3.50;;
57113;SDS011;42994;51.606;9.988;2024-03-25T00:12:42;10.35;;;3.25;;
57113;SDS011;42994;51.606;9.988;2024-03-25T00:15:09;10.05;;;3.15;;
57113;SDS011;42994;51.606;9.988;2024-03-25T00:17:35;11.73;;;3.15;;
57113;SDS011;42994;51.606;9.988;2024-03-25T00:20:02;12.90;;;3.50;;
57113;SDS011;42994;51.606;9.988;2024-03-25T00:22:31;13.32;;;3.80;;
57113;SDS011;42994;51.606;9.988;2024-03-25T00:24:58;14.63;;;3.92;;
57113;SDS011;42994;51.606;9.988;2024-03-25T00:27:23;10.05;;;4.30;;
57113;SDS011;42994;51.606;9.988;2024-03-25T00:29:52;5.07;;;2.65;;
57113;SDS011;42994;51.606;9.988;2024-03-25T00:32:17;9.70;;;2.75;;
57113;SDS011;42994;51.606;9.988;2024-03-25T00:34:44;7.93;;;2.53;;
57113;SDS011;42994;51.606;9.988;2024-03-25T00:37:10;9.48;;;3.13;;
57113;SDS011;42994;51.606;9.988;2024-03-25T00:39:37;5.25;;;2.60;;
57113;SDS011;42994;51.606;9.988;2024-03-25T00:42:03;4.53;;;2.30;;
57113;SDS011;42994;51.606;9.988;2024-03-25T00:44:30;10.15;;;2.45;;
57113;SDS011;42994;51.606;9.988;2024-03-25T00:46:57;5.03;;;2.17;;
57113;SDS011;42994;51.606;9.988;2024-03-25T00:49:25;6.07;;;2.20;;
57113;SDS011;42994;51.606;9.988;2024-03-25T00:51:51;9.35;;;2.28;;
57113;SDS011;42994;51.606;9.988;2024-03-25T00:54:18;7.35;;;2.40;;
57113;SDS011;42994;51.606;9.988;2024-03-25T00:56:44;12.15;;;2.28;;
57113;SDS011;42994;51.606;9.988;2024-03-25T00:59:11;5.32;;;2.40;;
57113;SDS011;42994;51.606;9.988;2024-03-25T01:01:37;8.05;;;2.40;;
57113;SDS011;42994;51.606;9.988;2024-03-25T01:04:05;7.10;;;2.50;;
57113;SDS011;42994;51.606;9.988;2024-03-25T01:06:31;7.28;;;2.22;;
57113;SDS011;42994;51.606;9.988;2024-03-25T01:08:58;7.47;;;2.53;;
57113;SDS011;42994;51.606;9.988;2024-03-25T01:11:24;10.98;;;2.75;;
57113;SDS011;42994;51.606;9.988;2024-03-25T01:13:51;7.72;;;2.53;;
57113;SDS011;42994;51.606;9.988;2024-03-25T01:16:17;7.03;;;4.35;;
57113;SDS011;42994;51.606;9.988;2024-03-25T01:18:43;8.63;;;2.75;;
57113;SDS011;42994;51.606;9.988;2024-03-25T01:21:11;18.73;;;2.88;;
57113;SDS011;42994;51.606;9.988;2024-03-25T01:23:37;9.93;;;2.83;;
57113;SDS011;42994;51.606;9.988;2024-03-25T01:26:03;15.13;;;2.92;;
57113;SDS011;42994;51.606;9.988;2024-03-25T01:28:30;9.43;;;2.90;;
57113;SDS011;42994;51.606;9.988;2024-03-25T01:30:56;12.30;;;2.63;;
57113;SDS011;42994;51.606;9.988;2024-03-25T01:33:23;13.60;;;3.45;;
57113;SDS011;42994;51.606;9.988;2024-03-25T01:35:49;11.35;;;4.28;;
57113;SDS011;42994;51.606;9.988;2024-03-25T01:38:18;7.40;;;3.08;;
57113;SDS011;42994;51.606;9.988;2024-03-25T01:40:43;15.57;;;3.40;;
57113;SDS011;42994;51.606;9.988;2024-03-25T01:43:10;11.55;;;2.95;;
57113;SDS011;42994;51.606;9.988;2024-03-25T01:45:36;16.55;;;3.25;;
57113;SDS011;42994;51.606;9.988;2024-03-25T01:48:04;12.75;;;3.15;;
57113;SDS011;42994;51.606;9.988;2024-03-25T01:50:33;12.45;;;3.50;;
57113;SDS011;42994;51.606;9.988;2024-03-25T01:53:02;14.48;;;3.78;;
57113;SDS011;42994;51.606;9.988;2024-03-25T01:55:29;11.40;;;3.40;;
57113;SDS011;42994;51.606;9.988;2024-03-25T01:57:59;10.45;;;3.50;;
57113;SDS011;42994;51.606;9.988;2024-03-25T02:00:25;14.85;;;4.43;;
57113;SDS011;42994;51.606;9.988;2024-03-25T02:02:53;12.25;;;4.22;;
57113;SDS011;42994;51.606;9.988;2024-03-25T02:05:20;19.88;;;3.90;;
57113;SDS011;42994;51.606;9.988;2024-03-25T02:07:47;18.67;;;6.05;;
57113;SDS011;42994;51.606;9.988;2024-03-25T02:10:14;15.25;;;4.10;;
57113;SDS011;42994;51.606;9.988;2024-03-25T02:12:43;17.52;;;5.00;;
57113;SDS011;42994;51.606;9.988;2024-03-25T02:15:10;11.82;;;3.97;;
57113;SDS011;42994;51.606;9.988;2024-03-25T02:17:38;24.30;;;4.20;;
57113;SDS011;42994;51.606;9.988;2024-03-25T02:20:05;11.23;;;4.75;;
57113;SDS011;42994;51.606;9.988;2024-03-25T02:22:33;19.20;;;4.22;;
57113;SDS011;42994;51.606;9.988;2024-03-25T02:25:00;14.68;;;3.83;;
57113;SDS011;42994;51.606;9.988;2024-03-25T02:27:30;14.27;;;4.18;;
57113;SDS011;42994;51.606;9.988;2024-03-25T02:30:01;15.65;;;4.07;;
57113;SDS011;42994;51.606;9.988;2024-03-25T02:32:29;14.23;;;3.75;;
57113;SDS011;42994;51.606;9.988;2024-03-25T02:34:55;12.68;;;4.57;;
57113;SDS011;42994;51.606;9.988;2024-03-25T02:37:23;12.38;;;4.13;;
57113;SDS011;42994;51.606;9.988;2024-03-25T02:39:49;9.02;;;3.28;;
57113;SDS011;42994;51.606;9.988;2024-03-25T02:42:16;7.78;;;3.78;;
57113;SDS011;42994;51.606;9.988;2024-03-25T02:44:43;17.08;;;4.30;;
57113;SDS011;42994;51.606;9.988;2024-03-25T02:47:11;12.40;;;3.38;;
57113;SDS011;42994;51.606;9.988;2024-03-25T02:49:37;13.90;;;3.28;;
57113;SDS011;42994;51.606;9.988;2024-03-25T02:52:04;11.32;;;4.20;;
57113;SDS011;42994;51.606;9.988;2024-03-25T02:54:30;16.67;;;3.83;;
57113;SDS011;42994;51.606;9.988;2024-03-25T02:56:57;13.30;;;4.35;;
57113;SDS011;42994;51.606;9.988;2024-03-25T02:59:23;13.77;;;4.40;;
57113;SDS011;42994;51.606;9.988;2024-03-25T03:01:51;17.33;;;3.58;;
57113;SDS011;42994;51.606;9.988;2024-03-25T03:04:16;9.27;;;4.00;;
57113;SDS011;42994;51.606;9.988;2024-03-25T03:06:43;12.95;;;3.63;;
57113;SDS011;42994;51.606;9.988;2024-03-25T03:09:09;10.13;;;3.85;;
57113;SDS011;42994;51.606;9.988;2024-03-25T03:11:36;13.85;;;3.60;;
57113;SDS011;42994;51.606;9.988;2024-03-25T03:14:01;8.38;;;2.83;;
57113;SDS011;42994;51.606;9.988;2024-03-25T03:16:29;11.10;;;3.38;;
57113;SDS011;42994;51.606;9.988;2024-03-25T03:18:56;12.20;;;3.63;;
57113;SDS011;42994;51.606;9.988;2024-03-25T03:21:23;13.00;;;3.28;;
57113;SDS011;42994;51.606;9.988;2024-03-25T03:23:49;11.75;;;3.78;;
57113;SDS011;42994;51.606;9.988;2024-03-25T03:26:15;15.93;;;4.18;;
57113;SDS011;42994;51.606;9.988;2024-03-25T03:28:41;8.75;;;3.20;;
57113;SDS011;42994;51.606;9.988;2024-03-25T03:31:08;19.27;;;4.05;;
57113;SDS011;42994;51.606;9.988;2024-03-25T03:33:34;12.57;;;2.70;;
57113;SDS011;42994;51.606;9.988;2024-03-25T03:36:02;6.38;;;2.88;;
57113;SDS011;42994;51.606;9.988;2024-03-25T03:38:28;13.07;;;2.53;;
57113;SDS011;42994;51.606;9.988;2024-03-25T03:40:56;14.07;;;3.50;;
57113;SDS011;42994;51.606;9.988;2024-03-25T03:43:22;8.02;;;2.72;;
57113;SDS011;42994;51.606;9.988;2024-03-25T03:45:49;11.73;;;2.78;;
57113;SDS011;42994;51.606;9.988;2024-03-25T03:48:15;9.48;;;2.85;;
57113;SDS011;42994;51.606;9.988;2024-03-25T03:50:41;6.40;;;2.78;;
57113;SDS011;42994;51.606;9.988;2024-03-25T03:53:09;9.55;;;3.15;;
57113;SDS011;42994;51.606;9.988;2024-03-25T03:55:36;6.43;;;3.00;;
57113;SDS011;42994;51.606;9.988;2024-03-25T03:58:02;9.55;;;3.30;;
57113;SDS011;42994;51.606;9.988;2024-03-25T04:00:28;8.02;;;2.72;;
57113;SDS011;42994;51.606;9.988;2024-03-25T04:02:54;16.92;;;3.28;;
57113;SDS011;42994;51.606;9.988;2024-03-25T04:05:21;4.22;;;2.42;;
57113;SDS011;42994;51.606;9.988;2024-03-25T04:07:47;7.43;;;2.85;;
57113;SDS011;42994;51.606;9.988;2024-03-25T04:10:15;4.15;;;2.55;;
57113;SDS011;42994;51.606;9.988;2024-03-25T04:12:41;7.32;;;2.60;;
57113;SDS011;42994;51.606;9.988;2024-03-25T04:15:08;7.43;;;2.90;;
57113;SDS011;42994;51.606;9.988;2024-03-25T04:17:34;8.35;;;2.58;;
57113;SDS011;42994;51.606;9.988;2024-03-25T04:20:01;10.77;;;2.75;;
57113;SDS011;42994;51.606;9.988;2024-03-25T04:22:31;10.90;;;2.53;;
57113;SDS011;42994;51.606;9.988;2024-03-25T04:24:58;12.10;;;2.90;;
57113;SDS011;42994;51.606;9.988;2024-03-25T04:27:25;7.85;;;2.15;;
57113;SDS011;42994;51.606;9.988;2024-03-25T04:29:52;8.80;;;2.45;;
57113;SDS011;42994;51.606;9.988;2024-03-25T04:32:17;4.95;;;2.20;;
57113;SDS011;42994;51.606;9.988;2024-03-25T04:34:44;7.13;;;2.30;;
57113;SDS011;42994;51.606;9.988;2024-03-25T04:37:10;2.63;;;1.70;;
57113;SDS011;42994;51.606;9.988;2024-03-25T04:39:36;5.45;;;2.33;;
57113;SDS011;42994;51.606;9.988;2024-03-25T04:42:03;3.28;;;1.88;;
57113;SDS011;42994;51.606;9.988;2024-03-25T04:44:30;8.23;;;2.15;;
57113;SDS011;42994;51.606;9.988;2024-03-25T04:46:56;6.30;;;2.55;;
57113;SDS011;42994;51.606;9.988;2024-03-25T04:49:22;5.43;;;2.58;;
57113;SDS011;42994;51.606;9.988;2024-03-25T04:51:48;4.65;;;2.20;;
57113;SDS011;42994;51.606;9.988;2024-03-25T04:54:13;4.78;;;2.25;;
57113;SDS011;42994;51.606;9.988;2024-03-25T04:56:39;7.60;;;2.20;;
57113;SDS011;42994;51.606;9.988;2024-03-25T04:59:06;10.18;;;2.72;;
57113;SDS011;42994;51.606;9.988;2024-03-25T05:01:33;6.03;;;2.83;;
57113;SDS011;42994;51.606;9.988;2024-03-25T05:03:59;6.95;;;2.30;;
57113;SDS011;42994;51.606;9.988;2024-03-25T05:06:24;16.52;;;2.53;;
57113;SDS011;42994;51.606;9.988;2024-03-25T05:08:50;4.03;;;2.15;;
57113;SDS011;42994;51.606;9.988;2024-03-25T05:11:16;8.38;;;2.53;;
57113;SDS011;42994;51.606;9.988;2024-03-25T05:13:42;11.55;;;2.88;;
57113;SDS011;42994;51.606;9.988;2024-03-25T05:16:07;4.35;;;1.90;;
57113;SDS011;42994;51.606;9.988;2024-03-25T05:18:35;10.75;;;2.83;;
57113;SDS011;42994;51.606;9.988;2024-03-25T05:21:00;4.65;;;2.25;;
57113;SDS011;42994;51.606;9.988;2024-03-25T05:23:26;16.90;;;3.38;;
57113;SDS011;42994;51.606;9.988;2024-03-25T05:25:52;6.88;;;2.40;;
57113;SDS011;42994;51.606;9.988;2024-03-25T05:28:18;9.95;;;3.20;;
57113;SDS011;42994;51.606;9.988;2024-03-25T05:30:44;9.77;;;2.30;;
57113;SDS011;42994;51.606;9.988;2024-03-25T05:33:10;6.43;;;2.35;;
57113;SDS011;42994;51.606;9.988;2024-03-25T05:35:37;4.97;;;2.38;;
57113;SDS011;42994;51.606;9.988;2024-03-25T05:38:03;5.45;;;2.38;;
57113;SDS011;42994;51.606;9.988;2024-03-25T05:40:29;6.13;;;2.47;;
57113;SDS011;42994;51.606;9.988;2024-03-25T05:42:55;9.13;;;2.70;;
57113;SDS011;42994;51.606;9.988;2024-03-25T05:45:21;11.45;;;2.60;;
57113;SDS011;42994;51.606;9.988;2024-03-25T05:47:47;11.50;;;3.63;;
57113;SDS011;42994;51.606;9.988;2024-03-25T05:50:15;6.35;;;2.38;;
57113;SDS011;42994;51.606;9.988;2024-03-25T05:52:42;10.27;;;2.40;;
57113;SDS011;42994;51.606;9.988;2024-03-25T05:55:08;8.25;;;2.33;;
57113;SDS011;42994;51.606;9.988;2024-03-25T05:57:34;7.40;;;2.28;;
57113;SDS011;42994;51.606;9.988;2024-03-25T06:00:00;13.38;;;3.17;;
57113;SDS011;42994;51.606;9.988;2024-03-25T06:02:26;10.43;;;2.58;;
57113;SDS011;42994;51.606;9.988;2024-03-25T06:04:51;18.75;;;3.78;;
57113;SDS011;42994;51.606;9.988;2024-03-25T06:07:21;10.90;;;2.67;;
57113;SDS011;42994;51.606;9.988;2024-03-25T06:09:48;7.03;;;2.70;;
57113;SDS011;42994;51.606;9.988;2024-03-25T06:12:14;8.68;;;2.70;;
57113;SDS011;42994;51.606;9.988;2024-03-25T06:14:40;11.65;;;2.97;;
57113;SDS011;42994;51.606;9.988;2024-03-25T06:17:05;10.40;;;2.42;;
57113;SDS011;42994;51.606;9.988;2024-03-25T06:19:31;7.10;;;2.67;;
57113;SDS011;42994;51.606;9.988;2024-03-25T06:21:57;15.63;;;3.50;;
57113;SDS011;42994;51.606;9.988;2024-03-25T06:24:23;5.07;;;2.75;;
57113;SDS011;42994;51.606;9.988;2024-03-25T06:26:50;11.90;;;3.75;;
57113;SDS011;42994;51.606;9.988;2024-03-25T06:29:17;10.23;;;3.05;;
57113;SDS011;42994;51.606;9.988;2024-03-25T06:31:43;12.85;;;3.33;;
57113;SDS011;42994;51.606;9.988;2024-03-25T06:34:38;7.50;;;3.20;;
57113;SDS011;42994;51.606;9.988;2024-03-25T06:37:04;15.73;;;3.30;;
57113;SDS011;42994;51.606;9.988;2024-03-25T06:39:30;9.70;;;3.17;;
57113;SDS011;42994;51.606;9.988;2024-03-25T06:41:57;15.88;;;3.90;;
57113;SDS011;42994;51.606;9.988;2024-03-25T06:44:23;15.20;;;3.47;;
57113;SDS011;42994;51.606;9.988;2024-03-25T06:46:49;17.70;;;3.55;;
57113;SDS011;42994;51.606;9.988;2024-03-25T06:49:15;7.25;;;3.00;;
57113;SDS011;42994;51.606;9.988;2024-03-25T06:51:40;14.23;;;4.60;;
57113;SDS011;42994;51.606;9.988;2024-03-25T06:54:06;9.43;;;3.78;;
57113;SDS011;42994;51.606;9.988;2024-03-25T06:56:32;13.75;;;3.53;;
57113;SDS011;42994;51.606;9.988;2024-03-25T06:58:59;9.07;;;3.38;;
57113;SDS011;42994;51.606;9.988;2024-03-25T07:01:25;8.65;;;3.25;;
57113;SDS011;42994;51.606;9.988;2024-03-25T07:03:51;12.38;;;3.72;;
57113;SDS011;42994;51.606;9.988;2024-03-25T07:06:18;14.63;;;3.47;;
57113;SDS011;42994;51.606;9.988;2024-03-25T07:08:44;8.52;;;2.95;;
57113;SDS011;42994;51.606;9.988;2024-03-25T07:11:10;13.55;;;3.75;;
57113;SDS011;42994;51.606;9.988;2024-03-25T07:13:36;7.10;;;3.15;;
57113;SDS011;42994;51.606;9.988;2024-03-25T07:16:04;8.02;;;2.75;;
57113;SDS011;42994;51.606;9.988;2024-03-25T07:18:30;12.48;;;3.67;;
57113;SDS011;42994;51.606;9.988;2024-03-25T07:20:55;8.23;;;2.92;;
57113;SDS011;42994;51.606;9.988;2024-03-25T07:23:21;9.95;;;2.67;;
57113;SDS011;42994;51.606;9.988;2024-03-25T07:25:47;12.45;;;3.65;;
57113;SDS011;42994;51.606;9.988;2024-03-25T07:28:13;11.60;;;2.92;;
57113;SDS011;42994;51.606;9.988;2024-03-25T07:30:39;12.15;;;4.50;;
57113;SDS011;42994;51.606;9.988;2024-03-25T07:33:06;12.32;;;3.20;;
57113;SDS011;42994;51.606;9.988;2024-03-25T07:35:33;9.98;;;2.85;;
57113;SDS011;42994;51.606;9.988;2024-03-25T07:37:59;10.93;;;3.28;;
57113;SDS011;42994;51.606;9.988;2024-03-25T07:40:25;12.43;;;3.53;;
57113;SDS011;42994;51.606;9.988;2024-03-25T07:42:50;11.45;;;4.00;;
57113;SDS011;42994;51.606;9.988;2024-03-25T07:45:16;13.90;;;4.15;;
57113;SDS011;42994;51.606;9.988;2024-03-25T07:47:42;14.80;;;4.05;;
57113;SDS011;42994;51.606;9.988;2024-03-25T07:50:09;14.90;;;4.72;;
57113;SDS011;42994;51.606;9.988;2024-03-25T07:52:35;11.00;;;3.65;;
57113;SDS011;42994;51.606;9.988;2024-03-25T07:55:01;16.20;;;3.90;;
57113;SDS011;42994;51.606;9.988;2024-03-25T07:57:27;18.30;;;4.65;;
57113;SDS011;42994;51.606;9.988;2024-03-25T07:59:53;18.40;;;4.82;;
57113;SDS011;42994;51.606;9.988;2024-03-25T08:02:19;16.13;;;4.53;;
57113;SDS011;42994;51.606;9.988;2024-03-25T08:04:45;18.50;;;4.90;;
57113;SDS011;42994;51.606;9.988;2024-03-25T08:07:12;11.70;;;3.40;;
57113;SDS011;42994;51.606;9.988;2024-03-25T08:09:38;15.75;;;4.10;;
57113;SDS011;42994;51.606;9.988;2024-03-25T08:12:04;18.40;;;4.43;;
57113;SDS011;42994;51.606;9.988;2024-03-25T08:14:31;18.17;;;4.13;;
57113;SDS011;42994;51.606;9.988;2024-03-25T08:16:57;14.48;;;4.10;;
57113;SDS011;42994;51.606;9.988;2024-03-25T08:19:23;17.77;;;3.78;;
57113;SDS011;42994;51.606;9.988;2024-03-25T08:21:48;13.00;;;3.38;;
57113;SDS011;42994;51.606;9.988;2024-03-25T08:24:16;15.07;;;4.20;;
57113;SDS011;42994;51.606;9.988;2024-03-25T08:26:41;14.75;;;3.72;;
57113;SDS011;42994;51.606;9.988;2024-03-25T08:29:07;16.08;;;3.90;;
57113;SDS011;42994;51.606;9.988;2024-03-25T08:31:33;8.88;;;2.70;;
57113;SDS011;42994;51.606;9.988;2024-03-25T08:33:59;7.05;;;2.60;;
57113;SDS011;42994;51.606;9.988;2024-03-25T08:36:25;20.13;;;4.43;;
57113;SDS011;42994;51.606;9.988;2024-03-25T08:38:51;17.30;;;3.35;;
57113;SDS011;42994;51.606;9.988;2024-03-25T08:41:18;16.27;;;4.70;;
57113;SDS011;42994;51.606;9.988;2024-03-25T08:43:44;7.72;;;3.13;;
57113;SDS011;42994;51.606;9.988;2024-03-25T08:46:10;15.45;;;3.50;;
57113;SDS011;42994;51.606;9.988;2024-03-25T08:48:38;18.65;;;3.83;;
57113;SDS011;42994;51.606;9.988;2024-03-25T08:51:03;11.25;;;3.38;;
57113;SDS011;42994;51.606;9.988;2024-03-25T08:53:30;13.90;;;3.47;;
57113;SDS011;42994;51.606;9.988;2024-03-25T08:55:56;10.25;;;3.65;;
57113;SDS011;42994;51.606;9.988;2024-03-25T08:58:23;13.38;;;3.20;;
57113;SDS011;42994;51.606;9.988;2024-03-25T09:00:49;13.07;;;3.00;;
57113;SDS011;42994;51.606;9.988;2024-03-25T09:03:16;18.17;;;2.80;;
57113;SDS011;42994;51.606;9.988;2024-03-25T09:05:42;16.98;;;2.22;;
57113;SDS011;42994;51.606;9.988;2024-03-25T09:08:08;8.27;;;2.63;;
57113;SDS011;42994;51.606;9.988;2024-03-25T09:10:34;7.63;;;2.85;;
57113;SDS011;42994;51.606;9.988;2024-03-25T09:13:19;9.00;;;2.83;;
57113;SDS011;42994;51.606;9.988;2024-03-25T09:15:47;13.55;;;2.45;;
57113;SDS011;42994;51.606;9.988;2024-03-25T09:18:13;13.88;;;2.92;;
57113;SDS011;42994;51.606;9.988;2024-03-25T09:20:39;13.82;;;2.63;;
57113;SDS011;42994;51.606;9.988;2024-03-25T09:23:05;8.85;;;2.97;;
57113;SDS011;42994;51.606;9.988;2024-03-25T09:25:31;12.15;;;2.97;;
57113;SDS011;42994;51.606;9.988;2024-03-25T09:27:58;11.48;;;4.63;;
57113;SDS011;42994;51.606;9.988;2024-03-25T09:30:24;12.95;;;2.72;;
57113;SDS011;42994;51.606;9.988;2024-03-25T09:32:51;12.10;;;2.70;;
57113;SDS011;42994;51.606;9.988;2024-03-25T09:35:17;11.10;;;3.20;;
57113;SDS011;42994;51.606;9.988;2024-03-25T09:37:44;7.68;;;2.40;;
57113;SDS011;42994;51.606;9.988;2024-03-25T09:40:10;7.50;;;1.83;;
57113;SDS011;42994;51.606;9.988;2024-03-25T09:42:40;10.30;;;2.35;;
57113;SDS011;42994;51.606;9.988;2024-03-25T09:45:12;13.85;;;2.58;;
57113;SDS011;42994;51.606;9.988;2024-03-25T09:47:41;9.98;;;2.17;;
57113;SDS011;42994;51.606;9.988;2024-03-25T09:50:12;10.88;;;2.72;;
57113;SDS011;42994;51.606;9.988;2024-03-25T09:52:39;5.38;;;1.65;;
57113;SDS011;42994;51.606;9.988;2024-03-25T09:55:06;6.38;;;1.70;;
57113;SDS011;42994;51.606;9.988;2024-03-25T09:57:33;10.30;;;2.10;;
57113;SDS011;42994;51.606;9.988;2024-03-25T10:00:00;15.50;;;4.63;;
57113;SDS011;42994;51.606;9.988;2024-03-25T10:02:27;11.27;;;2.67;;
57113;SDS011;42994;51.606;9.988;2024-03-25T10:04:55;12.20;;;1.85;;
57113;SDS011;42994;51.606;9.988;2024-03-25T10:07:23;8.25;;;2.20;;
57113;SDS011;42994;51.606;9.988;2024-03-25T10:09:52;5.93;;;1.75;;
57113;SDS011;42994;51.606;9.988;2024-03-25T10:12:19;7.75;;;1.60;;
57113;SDS011;42994;51.606;9.988;2024-03-25T10:14:45;8.48;;;1.73;;
57113;SDS011;42994;51.606;9.988;2024-03-25T10:17:11;15.05;;;2.22;;
57113;SDS011;42994;51.606;9.988;2024-03-25T10:19:37;9.43;;;1.88;;
57113;SDS011;42994;51.606;9.988;2024-03-25T10:22:04;8.15;;;1.83;;
57113;SDS011;42994;51.606;9.988;2024-03-25T10:27:20;9.23;;;2.35;;
57113;SDS011;42994;51.606;9.988;2024-03-25T10:29:53;7.78;;;1.92;;
57113;SDS011;42994;51.606;9.988;2024-03-25T10:35:31;9.70;;;2.03;;
57113;SDS011;42994;51.606;9.988;2024-03-25T10:38:08;9.48;;;2.33;;
57113;SDS011;42994;51.606;9.988;2024-03-25T10:40:43;10.27;;;1.92;;
57113;SDS011;42994;51.606;9.988;2024-03-25T10:43:11;9.43;;;2.05;;
57113;SDS011;42994;51.606;9.988;2024-03-25T10:45:37;9.80;;;2.55;;
57113;SDS011;42994;51.606;9.988;2024-03-25T10:48:07;14.27;;;2.83;;
57113;SDS011;42994;51.606;9.988;2024-03-25T10:50:40;7.68;;;2.30;;
57113;SDS011;42994;51.606;9.988;2024-03-25T10:53:08;7.40;;;1.80;;
57113;SDS011;42994;51.606;9.988;2024-03-25T10:55:38;9.88;;;1.77;;
57113;SDS011;42994;51.606;9.988;2024-03-25T10:58:07;11.02;;;2.28;;
57113;SDS011;42994;51.606;9.988;2024-03-25T11:00:33;12.30;;;2.22;;
57113;SDS011;42994;51.606;9.988;2024-03-25T11:03:00;8.40;;;2.38;;
57113;SDS011;42994;51.606;9.988;2024-03-25T11:05:26;7.72;;;1.67;;
57113;SDS011;42994;51.606;9.988;2024-03-25T11:07:53;5.72;;;1.70;;
57113;SDS011;42994;51.606;9.988;2024-03-25T11:10:18;11.55;;;2.90;;
57113;SDS011;42994;51.606;9.988;2024-03-25T11:12:54;9.38;;;2.45;;
57113;SDS011;42994;51.606;9.988;2024-03-25T11:15:21;12.88;;;2.35;;
57113;SDS011;42994;51.606;9.988;2024-03-25T11:17:50;8.13;;;2.13;;
57113;SDS011;42994;51.606;9.988;2024-03-25T11:20:16;7.82;;;2.40;;
57113;SDS011;42994;51.606;9.988;2024-03-25T11:22:52;12.63;;;2.30;;
57113;SDS011;42994;51.606;9.988;2024-03-25T11:25:19;8.57;;;1.75;;
57113;SDS011;42994;51.606;9.988;2024-03-25T11:27:46;7.18;;;1.92;;
57113;SDS011;42994;51.606;9.988;2024-03-25T11:30:13;11.73;;;1.95;;
57113;SDS011;42994;51.606;9.988;2024-03-25T11:32:47;8.52;;;2.42;;
57113;SDS011;42994;51.606;9.988;2024-03-25T11:35:16;8.73;;;1.98;;
57113;SDS011;42994;51.606;9.988;2024-03-25T11:37:42;4.75;;;1.67;;
57113;SDS011;42994;51.606;9.988;2024-03-25T11:40:09;9.27;;;1.70;;
57113;SDS011;42994;51.606;9.988;2024-03-25T11:42:35;11.52;;;1.85;;
57113;SDS011;42994;51.606;9.988;2024-03-25T11:45:04;6.72;;;1.77;;
57113;SDS011;42994;51.606;9.988;2024-03-25T11:47:30;11.15;;;2.55;;
57113;SDS011;42994;51.606;9.988;2024-03-25T11:49:58;7.35;;;2.00;;
57113;SDS011;42994;51.606;9.988;2024-03-25T11:52:24;9.35;;;1.38;;
57113;SDS011;42994;51.606;9.988;2024-03-25T11:54:54;10.38;;;2.30;;
57113;SDS011;42994;51.606;9.988;2024-03-25T11:57:21;6.72;;;2.47;;
57113;SDS011;42994;51.606;9.988;2024-03-25T11:59:47;6.95;;;1.73;;
57113;SDS011;42994;51.606;9.988;2024-03-25T12:02:13;8.63;;;3.08;;
57113;SDS011;42994;51.606;9.988;2024-03-25T12:04:41;5.93;;;1.75;;
57113;SDS011;42994;51.606;9.988;2024-03-25T12:07:11;9.18;;;2.30;;
57113;SDS011;42994;51.606;9.988;2024-03-25T12:09:37;7.50;;;1.95;;
57113;SDS011;42994;51.606;9.988;2024-03-25T12:12:21;8.55;;;2.15;;
57113;SDS011;42994;51.606;9.988;2024-03-25T12:14:47;12.93;;;2.30;;
57113;SDS011;42994;51.606;9.988;2024-03-25T12:17:13;7.70;;;1.73;;
57113;SDS011;42994;51.606;9.988;2024-03-25T12:19:43;8.45;;;2.63;;
57113;SDS011;42994;51.606;9.988;2024-03-25T12:22:10;9.45;;;2.90;;
57113;SDS011;42994;51.606;9.988;2024-03-25T12:24:37;7.43;;;2.03;;
57113;SDS011;42994;51.606;9.988;2024-03-25T12:27:04;5.18;;;1.85;;
57113;SDS011;42994;51.606;9.988;2024-03-25T12:29:30;13.85;;;2.90;;
57113;SDS011;42994;51.606;9.988;2024-03-25T12:31:56;10.10;;;2.63;;
57113;SDS011;42994;51.606;9.988;2024-03-25T12:34:22;9.98;;;2.83;;
57113;SDS011;42994;51.606;9.988;2024-03-25T12:36:50;8.15;;;2.00;;
57113;SDS011;42994;51.606;9.988;2024-03-25T12:39:17;9.77;;;2.50;;
57113;SDS011;42994;51.606;9.988;2024-03-25T12:41:44;10.00;;;2.63;;
57113;SDS011;42994;51.606;9.988;2024-03-25T12:44:11;10.38;;;2.25;;
57113;SDS011;42994;51.606;9.988;2024-03-25T12:46:38;8.00;;;3.10;;
57113;SDS011;42994;51.606;9.988;2024-03-25T12:49:04;10.93;;;2.50;;
57113;SDS011;42994;51.606;9.988;2024-03-25T12:51:30;13.10;;;2.75;;
57113;SDS011;42994;51.606;9.988;2024-03-25T12:53:56;10.57;;;1.98;;
57113;SDS011;42994;51.606;9.988;2024-03-25T12:56:23;9.05;;;2.47;;
57113;SDS011;42994;51.606;9.988;2024-03-25T12:58:49;10.95;;;2.80;;
57113;SDS011;42994;51.606;9.988;2024-03-25T13:01:15;8.57;;;2.33;;
57113;SDS011;42994;51.606;9.988;2024-03-25T13:03:41;7.88;;;2.08;;
57113;SDS011;42994;51.606;9.988;2024-03-25T13:06:07;10.15;;;2.25;;
57113;SDS011;42994;51.606;9.988;2024-03-25T13:08:33;5.72;;;1.63;;
57113;SDS011;42994;51.606;9.988;2024-03-25T13:10:59;9.30;;;1.75;;
57113;SDS011;42994;51.606;9.988;2024-03-25T13:13:27;9.52;;;2.42;;
57113;SDS011;42994;51.606;9.988;2024-03-25T13:15:53;5.95;;;1.95;;
57113;SDS011;42994;51.606;9.988;2024-03-25T13:18:19;9.90;;;3.65;;
57113;SDS011;42994;51.606;9.988;2024-03-25T13:20:45;8.00;;;1.88;;
57113;SDS011;42994;51.606;9.988;2024-03-25T13:23:11;10.57;;;2.92;;
57113;SDS011;42994;51.606;9.988;2024-03-25T13:25:36;9.52;;;2.42;;
57113;SDS011;42994;51.606;9.988;2024-03-25T13:28:02;6.90;;;2.47;;
57113;SDS011;42994;51.606;9.988;2024-03-25T13:30:30;2.83;;;1.58;;
57113;SDS011;42994;51.606;9.988;2024-03-25T13:32:57;13.63;;;2.70;;
57113;SDS011;42994;51.606;9.988;2024-03-25T13:35:23;6.72;;;2.05;;
57113;SDS011;42994;51.606;9.988;2024-03-25T13:37:49;6.88;;;2.25;;
57113;SDS011;42994;51.606;9.988;2024-03-25T13:40:15;6.90;;;1.85;;
57113;SDS011;42994;51.606;9.988;2024-03-25T13:42:40;6.35;;;1.77;;
57113;SDS011;42994;51.606;9.988;2024-03-25T13:45:06;3.75;;;1.98;;
57113;SDS011;42994;51.606;9.988;2024-03-25T13:47:34;7.35;;;2.03;;
57113;SDS011;42994;51.606;9.988;2024-03-25T13:50:00;6.25;;;1.85;;
57113;SDS011;42994;51.606;9.988;2024-03-25T13:52:26;10.38;;;2.20;;
57113;SDS011;42994;51.606;9.988;2024-03-25T13:54:52;11.38;;;2.20;;
57113;SDS011;42994;51.606;9.988;2024-03-25T13:57:18;4.97;;;1.75;;
57113;SDS011;42994;51.606;9.988;2024-03-25T13:59:44;6.05;;;2.55;;
57113;SDS011;42994;51.606;9.988;2024-03-25T14:02:10;5.93;;;2.15;;
57113;SDS011;42994;51.606;9.988;2024-03-25T14:04:37;5.35;;;2.00;;
57113;SDS011;42994;51.606;9.988;2024-03-25T14:07:03;7.70;;;1.92;;
57113;SDS011;42994;51.606;9.988;2024-03-25T14:09:29;5.88;;;2.10;;
57113;SDS011;42994;51.606;9.988;2024-03-25T14:11:55;5.32;;;1.88;;
57113;SDS011;42994;51.606;9.988;2024-03-25T14:14:21;9.63;;;2.17;;
57113;SDS011;42994;51.606;9.988;2024-03-25T14:16:47;8.13;;;1.92;;
57113;SDS011;42994;51.606;9.988;2024-03-25T14:19:13;8.52;;;2.20;;
57113;SDS011;42994;51.606;9.988;2024-03-25T14:21:40;8.82;;;2.08;;
57113;SDS011;42994;51.606;9.988;2024-03-25T14:24:06;5.60;;;2.28;;
57113;SDS011;42994;51.606;9.988;2024-03-25T14:26:32;7.45;;;2.10;;
57113;SDS011;42994;51.606;9.988;2024-03-25T14:28:59;6.38;;;2.25;;
57113;SDS011;42994;51.606;9.988;2024-03-25T14:31:25;8.50;;;2.05;;
57113;SDS011;42994;51.606;9.988;2024-03-25T14:33:50;7.18;;;1.83;;
57113;SDS011;42994;51.606;9.988;2024-03-25T14:36:16;10.88;;;1.90;;
57113;SDS011;42994;51.606;9.988;2024-03-25T14:38:43;9.35;;;1.80;;
57113;SDS011;42994;51.606;9.988;2024-03-25T14:41:10;3.00;;;1.00;;
57113;SDS011;42994;51.606;9.988;2024-03-25T14:43:37;2.63;;;1.23;;